createdAt,value
2019-01-25T00:01:09.164Z,95715.86
2019-01-25T00:03:39.866Z,95710.89
2019-01-25T00:06:19.551Z,95711.13
2019-01-25T00:08:49.439Z,95708.75
2019-01-25T00:11:19.977Z,95700.59
2019-01-25T00:13:52.466Z,95709.56
2019-01-25T00:16:24.067Z,95715.72
2019-01-25T00:18:55.282Z,95713.72
2019-01-25T00:21:26.032Z,95706.73
2019-01-25T00:23:58.810Z,95706.98
2019-01-25T00:26:38.307Z,95714.13
2019-01-25T00:29:09.420Z,95713.11
2019-01-25T00:31:45.481Z,95720.34
2019-01-25T00:34:31.477Z,95719.32
2019-01-25T00:37:09.222Z,95717.75
2019-01-25T00:39:41.454Z,95720.98
2019-01-25T00:42:17.413Z,95729.28
2019-01-25T00:44:49.053Z,95725.72
2019-01-25T00:47:19.852Z,95723.91
2019-01-25T00:49:49.700Z,95728.38
2019-01-25T00:52:28.594Z,95730.49
2019-01-25T00:55:00.295Z,95726.83
2019-01-25T00:57:31.238Z,95729.98
2019-01-25T01:00:04.830Z,95730.71
2019-01-25T01:02:54.209Z,95721.51
2019-01-25T01:05:27.206Z,95737.61
2019-01-25T01:07:59.297Z,95750.98
2019-01-25T01:10:36.422Z,95754.13
2019-01-25T01:13:08.798Z,95744.67
2019-01-25T01:15:39.117Z,95758.86
2019-01-25T01:18:09.216Z,95754.27
2019-01-25T01:20:42.027Z,95747.39
2019-01-25T01:23:11.934Z,95759.34
2019-01-25T01:25:44.220Z,95754.02
2019-01-25T01:28:17.612Z,95771.67
2019-01-25T01:30:47.751Z,95766.63
2019-01-25T01:33:29.552Z,95774.50
2019-01-25T01:36:02.003Z,95770.04
2019-01-25T01:38:34.244Z,95768.95
2019-01-25T01:41:04.906Z,95763.87
2019-01-25T01:43:39.002Z,95763.95
2019-01-25T01:46:20.196Z,95768.65
2019-01-25T01:48:53.314Z,95769.16
2019-01-25T01:51:27.457Z,95770.97
2019-01-25T01:54:09.645Z,95772.56
2019-01-25T01:56:39.583Z,95775.91
2019-01-25T01:59:09.511Z,95783.02
2019-01-25T02:01:57.775Z,95780.39
2019-01-25T02:04:38.501Z,95781.38
2019-01-25T02:07:19.501Z,95778.80
2019-01-25T02:09:54.153Z,95787.00
2019-01-25T02:12:27.391Z,95772.88
2019-01-25T02:14:57.402Z,95773.99
2019-01-25T02:17:27.634Z,95782.16
2019-01-25T02:19:57.603Z,95779.58
2019-01-25T02:22:31.003Z,95765.86
2019-01-25T02:25:17.646Z,95766.77
2019-01-25T02:27:48.546Z,95769.83
2019-01-25T02:30:30.282Z,95754.90
2019-01-25T02:33:01.696Z,95761.23
2019-01-25T02:35:42.113Z,95760.45
2019-01-25T02:38:18.714Z,95762.41
2019-01-25T02:41:05.403Z,95759.52
2019-01-25T02:43:52.548Z,95757.45
2019-01-25T02:46:40.572Z,95752.38
2019-01-25T02:49:28.094Z,95747.28
2019-01-25T02:52:16.580Z,95753.05
2019-01-25T02:54:52.333Z,95761.83
2019-01-25T02:57:43.771Z,95748.73
2019-01-25T03:00:24.464Z,95757.45
2019-01-25T03:02:59.580Z,95757.25
2019-01-25T03:05:31.784Z,95752.89
2019-01-25T03:08:09.231Z,95751.25
2019-01-25T03:10:56.361Z,95743.88
2019-01-25T03:13:26.791Z,95743.43
2019-01-25T03:15:56.761Z,95753.70
2019-01-25T03:18:26.762Z,95756.28
2019-01-25T03:21:00.409Z,95758.02
2019-01-25T03:23:41.358Z,95753.05
2019-01-25T03:26:12.292Z,95760.16
2019-01-25T03:28:44.164Z,95755.20
2019-01-25T03:31:28.716Z,95756.77
2019-01-25T03:34:08.869Z,95747.71
2019-01-25T03:36:57.804Z,95757.03
2019-01-25T03:39:46.961Z,95765.98
2019-01-25T03:42:30.209Z,95751.05
2019-01-25T03:45:03.056Z,95761.27
2019-01-25T03:47:39.982Z,95770.83
2019-01-25T03:50:18.657Z,95763.22
2019-01-25T03:52:53.496Z,95761.48
2019-01-25T03:55:37.504Z,95762.81
2019-01-25T03:58:13.747Z,95760.33
2019-01-25T04:00:53.348Z,95769.72
2019-01-25T04:03:30.049Z,95767.61
2019-01-25T04:06:03.506Z,95746.63
2019-01-25T04:08:47.211Z,95766.38
2019-01-25T04:11:21.213Z,95762.36
2019-01-25T04:14:03.881Z,95766.22
2019-01-25T04:16:42.762Z,95766.52
2019-01-25T04:19:27.129Z,95758.22
2019-01-25T04:22:18.709Z,95766.85
2019-01-25T04:25:02.814Z,95778.41
2019-01-25T04:27:36.948Z,95786.36
2019-01-25T04:30:24.433Z,95783.36
2019-01-25T04:33:02.872Z,95775.91
2019-01-25T04:35:43.585Z,95776.50
2019-01-25T04:38:23.354Z,95780.13
2019-01-25T04:40:56.678Z,95775.80
2019-01-25T04:43:32.602Z,95774.19
2019-01-25T04:46:06.729Z,95762.98
2019-01-25T04:48:43.624Z,95771.58
2019-01-25T04:51:16.013Z,95770.33
2019-01-25T04:53:46.275Z,95783.64
2019-01-25T04:56:17.906Z,95782.42
2019-01-25T04:58:50.942Z,95789.16
2019-01-25T05:01:41.348Z,95791.70
2019-01-25T05:04:21.249Z,95792.17
2019-01-25T05:09:39.623Z,95784.20
2019-01-25T05:12:19.551Z,95792.81
2019-01-25T05:14:59.857Z,95805.02
2019-01-25T05:17:35.209Z,95800.40
2019-01-25T05:20:16.973Z,95803.70
2019-01-25T05:22:57.527Z,95807.55
2019-01-25T05:25:29.563Z,95817.66
2019-01-25T05:28:10.483Z,95809.56
2019-01-25T05:31:00.057Z,95817.77
2019-01-25T05:33:39.011Z,95819.23
2019-01-25T05:36:09.616Z,95823.20
2019-01-25T05:38:47.081Z,95820.86
2019-01-25T05:41:28.498Z,95818.30
2019-01-25T05:44:01.689Z,95810.20
2019-01-25T05:46:37.015Z,95817.70
2019-01-25T05:49:10.237Z,95824.44
2019-01-25T05:51:47.094Z,95820.77
2019-01-25T05:54:28.053Z,95834.45
2019-01-25T05:57:19.546Z,95836.80
2019-01-25T06:00:09.935Z,95826.52
2019-01-25T06:02:55.827Z,95834.20
2019-01-25T06:05:28.908Z,95834.04
2019-01-25T06:07:59.862Z,95847.55
2019-01-25T06:10:32.936Z,95835.30
2019-01-25T06:13:17.220Z,95840.67
2019-01-25T06:15:49.419Z,95827.57
2019-01-25T06:18:20.961Z,95838.47
2019-01-25T06:20:55.849Z,95843.50
2019-01-25T06:23:33.749Z,95849.80
2019-01-25T06:26:13.965Z,95854.28
2019-01-25T06:28:49.888Z,95841.48
2019-01-25T06:31:33.187Z,95854.36
2019-01-25T06:34:08.483Z,95845.19
2019-01-25T06:36:40.477Z,95851.14
2019-01-25T06:39:11.436Z,95850.66
2019-01-25T06:41:53.632Z,95852.75
2019-01-25T06:44:28.422Z,95861.27
2019-01-25T06:47:03.933Z,95864.55
2019-01-25T06:52:21.490Z,95869.61
2019-01-25T06:54:59.081Z,95867.70
2019-01-25T06:57:41.111Z,95870.82
2019-01-25T07:00:30.487Z,95867.70
2019-01-25T07:03:09.193Z,95851.98
2019-01-25T07:05:45.718Z,95871.99
2019-01-25T07:08:17.318Z,95880.66
2019-01-25T07:10:48.560Z,95884.64
2019-01-25T07:13:30.912Z,95869.99
2019-01-25T07:16:04.750Z,95884.83
2019-01-25T07:18:41.261Z,95877.16
2019-01-25T07:21:13.697Z,95882.35
2019-01-25T07:23:43.329Z,95893.67
2019-01-25T07:26:16.521Z,95895.81
2019-01-25T07:28:49.135Z,95898.64
2019-01-25T07:31:30.098Z,95882.84
2019-01-25T07:34:15.175Z,95895.14
2019-01-25T07:36:52.780Z,95895.14
2019-01-25T07:39:31.481Z,95899.09
2019-01-25T07:42:19.276Z,95907.74
2019-01-25T07:44:54.183Z,95910.13
2019-01-25T07:47:29.855Z,95894.31
2019-01-25T07:50:04.378Z,95906.49
2019-01-25T07:52:38.537Z,95919.66
2019-01-25T07:55:12.893Z,95929.73
2019-01-25T07:57:47.433Z,95923.27
2019-01-25T08:00:17.833Z,95944.81
2019-01-25T08:03:01.168Z,95947.40
2019-01-25T08:05:38.496Z,95934.91
2019-01-25T08:08:11.711Z,95948.09
2019-01-25T08:11:09.717Z,95946.83
2019-01-25T08:14:05.926Z,95957.91
2019-01-25T08:16:47.007Z,95973.85
2019-01-25T08:19:43.127Z,95971.71
2019-01-25T08:22:38.094Z,95969.01
2019-01-25T08:25:29.131Z,95969.01
2019-01-25T08:28:16.208Z,95987.41
2019-01-25T08:31:10.468Z,95986.05
2019-01-25T08:33:53.954Z,95983.13
2019-01-25T08:36:37.804Z,95976.56
2019-01-25T08:39:36.021Z,95995.66
2019-01-25T08:42:39.280Z,95995.66
2019-01-25T08:45:35.535Z,95991.58
2019-01-25T08:48:15.161Z,95991.80
2019-01-25T08:50:52.690Z,95995.82
2019-01-25T08:53:28.570Z,95991.08
2019-01-25T08:56:15.386Z,95998.70
2019-01-25T08:58:52.419Z,95999.87
2019-01-25T09:01:36.130Z,96002.86
2019-01-25T09:04:16.076Z,96019.23
2019-01-25T09:06:50.556Z,96012.13
2019-01-25T09:09:24.081Z,96018.40
2019-01-25T09:12:07.518Z,96023.09
2019-01-25T09:18:05.667Z,96023.86
2019-01-25T09:21:20.925Z,96039.73
2019-01-25T09:24:04.199Z,96035.98
2019-01-25T09:26:39.706Z,96052.36
2019-01-25T09:29:30.474Z,96038.22
2019-01-25T09:32:22.106Z,96047.55
2019-01-25T09:35:20.466Z,96057.69
2019-01-25T09:38:11.635Z,96065.80
2019-01-25T09:41:08.903Z,96068.02
2019-01-25T09:44:02.220Z,96079.31
2019-01-25T09:46:50.184Z,96077.16
2019-01-25T09:49:31.180Z,96081.14
2019-01-25T09:52:23.282Z,96083.76
2019-01-25T09:55:28.848Z,96083.14
2019-01-25T09:58:29.696Z,96086.41
2019-01-25T10:01:11.085Z,96093.33
2019-01-25T10:04:16.316Z,96077.86
2019-01-25T10:07:17.221Z,96089.82
2019-01-25T10:10:01.254Z,96083.80
2019-01-25T10:12:43.056Z,96083.80
2019-01-25T10:15:29.517Z,96077.80
2019-01-25T10:18:03.647Z,96077.80
2019-01-25T10:20:40.320Z,96073.67
2019-01-25T10:23:39.208Z,96085.56
2019-01-25T10:26:10.756Z,96068.87
2019-01-25T10:28:45.752Z,96064.59
2019-01-25T10:31:30.538Z,96080.45
2019-01-25T10:34:19.360Z,96080.66
2019-01-25T10:37:14.768Z,96080.63
2019-01-25T10:40:04.588Z,96094.67
2019-01-25T10:42:59.442Z,96077.72
2019-01-25T10:45:42.227Z,96070.07
2019-01-25T10:48:23.557Z,96071.41
2019-01-25T10:51:08.291Z,96053.59
2019-01-25T10:54:09.450Z,96065.73
2019-01-25T10:56:49.960Z,96062.97
2019-01-25T10:59:30.476Z,96062.09
2019-01-25T11:02:04.824Z,96067.35
2019-01-25T11:04:48.987Z,96078.53
2019-01-25T11:07:42.209Z,96077.66
2019-01-25T11:10:22.404Z,96076.25
2019-01-25T11:13:01.048Z,96078.47
2019-01-25T11:15:55.180Z,96068.57
2019-01-25T11:18:32.877Z,96052.64
2019-01-25T11:21:03.454Z,96081.06
2019-01-25T11:23:48.357Z,96077.80
2019-01-25T11:26:35.438Z,96063.54
2019-01-25T11:29:30.254Z,96064.84
2019-01-25T11:32:33.469Z,96063.45
2019-01-25T11:38:18.787Z,96087.91
2019-01-25T11:40:52.062Z,96084.26
2019-01-25T11:43:26.887Z,96088.33
2019-01-25T11:56:00.245Z,96061.22
2019-01-25T11:58:34.945Z,96080.99
2019-01-25T12:01:09.551Z,96065.42
2019-01-25T12:03:46.661Z,96070.73
2019-01-25T12:06:52.753Z,96062.33
2019-01-25T12:09:23.993Z,96059.16
2019-01-25T12:12:12.033Z,96054.13
2019-01-25T12:14:48.634Z,96039.83
2019-01-25T12:17:25.177Z,96044.16
2019-01-25T12:20:02.270Z,96034.47
2019-01-25T12:22:32.531Z,96034.47
2019-01-25T12:25:18.218Z,96059.25
2019-01-25T12:27:57.087Z,96051.95
2019-01-25T12:30:29.778Z,96048.02
2019-01-25T12:36:45.161Z,96037.39
2019-01-25T12:39:49.719Z,96039.45
2019-01-25T12:42:34.172Z,96023.45
2019-01-25T12:45:50.327Z,96033.17
2019-01-25T12:48:36.246Z,96033.12
2019-01-25T12:51:11.435Z,96022.43
2019-01-25T12:53:47.222Z,96040.52
2019-01-25T12:56:37.892Z,96042.16
2019-01-25T12:59:40.565Z,96047.95
2019-01-25T13:02:22.343Z,96039.27
2019-01-25T13:04:54.881Z,96055.11
2019-01-25T13:07:38.423Z,96042.63
2019-01-25T13:10:24.261Z,96063.99
2019-01-25T13:13:00.706Z,96076.83
2019-01-25T13:15:38.109Z,96044.34
2019-01-25T13:18:14.507Z,96063.40
2019-01-25T13:20:52.826Z,96058.77
2019-01-25T13:23:34.983Z,96041.06
2019-01-25T13:26:12.662Z,96057.46
2019-01-25T13:28:54.302Z,96051.05
2019-01-25T13:31:29.105Z,96048.77
2019-01-25T13:34:05.796Z,96059.50
2019-01-25T13:36:41.909Z,96057.47
2019-01-25T13:39:25.171Z,96054.91
2019-01-25T13:42:03.761Z,96031.44
2019-01-25T13:44:36.459Z,96075.39
2019-01-25T13:47:30.311Z,96059.92
2019-01-25T13:50:16.361Z,96053.31
2019-01-25T13:52:55.059Z,96046.13
2019-01-25T13:55:38.528Z,96062.52
2019-01-25T14:01:46.051Z,96058.27
2019-01-25T14:04:31.727Z,96076.70
2019-01-25T14:07:36.882Z,96068.20
2019-01-25T14:10:39.253Z,96066.77
2019-01-25T14:13:34.271Z,96071.80
2019-01-25T14:16:11.222Z,96074.68
2019-01-25T14:18:45.058Z,96078.56
2019-01-25T14:21:35.633Z,96093.28
2019-01-25T14:24:32.861Z,96096.47
2019-01-25T14:27:18.278Z,96090.36
2019-01-25T14:29:55.869Z,96107.73
2019-01-25T14:32:36.505Z,96100.28
2019-01-25T14:35:12.216Z,96111.64
2019-01-25T14:38:03.852Z,96102.35
2019-01-25T14:41:09.867Z,96117.16
2019-01-25T14:43:54.426Z,96112.45
2019-01-25T14:46:32.334Z,96125.80
2019-01-25T14:49:28.894Z,96135.38
2019-01-25T14:52:21.348Z,96146.91
2019-01-25T14:55:12.848Z,96143.94
2019-01-25T14:58:01.027Z,96141.63
2019-01-25T15:00:49.863Z,96150.66
2019-01-25T15:03:50.444Z,96150.59
2019-01-25T15:06:32.775Z,96143.83
2019-01-25T15:09:14.297Z,96150.33
2019-01-25T15:11:51.624Z,96152.12
2019-01-25T15:14:25.463Z,96157.72
2019-01-25T15:17:01.944Z,96124.94
2019-01-25T15:20:06.198Z,96157.88
2019-01-25T15:22:54.246Z,96158.86
2019-01-25T15:28:17.638Z,96158.34
2019-01-25T15:30:50.630Z,96166.50
2019-01-25T15:33:38.577Z,96155.33
2019-01-25T15:36:21.651Z,96177.38
2019-01-25T15:39:17.740Z,96164.59
2019-01-25T15:42:15.736Z,96158.56
2019-01-25T15:44:55.727Z,96166.70
2019-01-25T15:47:59.776Z,96173.34
2019-01-25T15:51:01.132Z,96173.41
2019-01-25T15:53:53.956Z,96179.39
2019-01-25T15:56:39.013Z,96180.09
2019-01-25T15:59:17.024Z,96188.22
2019-01-25T16:02:01.979Z,96189.55
2019-01-25T16:04:42.171Z,96186.02
2019-01-25T16:07:22.159Z,96194.45
2019-01-25T16:10:02.705Z,96191.36
2019-01-25T16:12:51.280Z,96200.97
2019-01-25T16:15:30.635Z,96206.30
2019-01-25T16:18:15.638Z,96220.17
2019-01-25T16:21:08.404Z,96214.41
2019-01-25T16:23:52.539Z,96226.38
2019-01-25T16:26:35.264Z,96226.69
2019-01-25T16:29:23.658Z,96218.99
2019-01-25T16:32:11.445Z,96221.19
2019-01-25T16:34:46.194Z,96228.29
2019-01-25T16:37:33.566Z,96233.52
2019-01-25T16:40:08.167Z,96246.16
2019-01-25T16:42:44.174Z,96232.14
2019-01-25T16:45:20.451Z,96238.33
2019-01-25T16:48:02.470Z,96238.55
2019-01-25T16:50:39.824Z,96239.38
2019-01-25T16:53:13.632Z,96252.70
2019-01-25T16:55:50.637Z,96252.70
2019-01-25T16:58:25.384Z,96241.70
2019-01-25T17:01:04.818Z,96248.80
2019-01-25T17:03:43.657Z,96262.37
2019-01-25T17:06:22.098Z,96260.89
2019-01-25T17:09:00.417Z,96238.23
2019-01-25T17:11:34.045Z,96251.74
2019-01-25T17:14:04.176Z,96272.91
2019-01-25T17:16:45.232Z,96269.88
2019-01-25T17:19:21.063Z,96283.39
2019-01-25T17:22:01.683Z,96279.34
2019-01-25T17:24:43.050Z,96281.05
2019-01-25T17:27:23.175Z,96288.06
2019-01-25T17:29:58.465Z,96288.20
2019-01-25T17:32:37.160Z,96287.56
2019-01-25T17:35:11.617Z,96285.35
2019-01-25T17:37:43.644Z,96297.67
2019-01-25T17:40:21.004Z,96285.58
2019-01-25T17:43:00.486Z,96282.61
2019-01-25T17:45:33.949Z,96282.25
2019-01-25T17:48:14.477Z,96288.52
2019-01-25T17:50:51.792Z,96303.50
2019-01-25T17:53:27.902Z,96277.53
2019-01-25T17:55:58.053Z,96296.99
2019-01-25T17:58:30.247Z,96282.92
2019-01-25T18:01:04.053Z,96279.03
2019-01-25T18:03:45.249Z,96281.87
2019-01-25T18:06:25.206Z,96294.28
2019-01-25T18:09:02.039Z,96292.95
2019-01-25T18:11:40.703Z,96300.77
2019-01-25T18:14:21.995Z,96291.62
2019-01-25T18:17:01.720Z,96296.65
2019-01-25T18:19:40.527Z,96311.91
2019-01-25T18:22:23.452Z,96315.95
2019-01-25T18:25:03.519Z,96318.33
2019-01-25T18:27:47.394Z,96316.02
2019-01-25T18:30:35.244Z,96318.55
2019-01-25T18:33:19.031Z,96308.19
2019-01-25T18:35:55.172Z,96311.87
2019-01-25T18:38:38.841Z,96312.37
2019-01-25T18:41:09.925Z,96301.39
2019-01-25T18:43:42.865Z,96296.61
2019-01-25T18:46:16.674Z,96289.97
2019-01-25T18:48:52.018Z,96289.19
2019-01-25T18:51:28.526Z,96288.59
2019-01-25T18:54:03.019Z,96264.92
2019-01-25T18:56:38.847Z,96296.04
2019-01-25T18:59:16.245Z,96298.16
2019-01-25T19:01:57.511Z,96296.39
2019-01-25T19:04:38.731Z,96305.17
2019-01-25T19:07:22.596Z,96315.80
2019-01-25T19:10:08.028Z,96303.61
2019-01-25T19:12:46.777Z,96322.62
2019-01-25T19:15:33.917Z,96317.69
2019-01-25T19:18:14.120Z,96329.69
2019-01-25T19:20:47.689Z,96312.77
2019-01-25T19:23:17.445Z,96310.52
2019-01-25T19:25:47.618Z,96319.08
2019-01-25T19:28:19.163Z,96318.26
2019-01-25T19:30:48.941Z,96323.88
2019-01-25T19:33:23.792Z,96342.33
2019-01-25T19:36:03.667Z,96343.59
2019-01-25T19:38:36.260Z,96343.21
2019-01-25T19:41:10.238Z,96351.08
2019-01-25T19:43:53.266Z,96345.71
2019-01-25T19:46:24.625Z,96353.58
2019-01-25T19:49:03.111Z,96366.41
2019-01-25T19:51:43.086Z,96366.84
2019-01-25T19:54:14.846Z,96357.11
2019-01-25T19:56:53.263Z,96362.27
2019-01-25T19:59:24.508Z,96368.73
2019-01-25T20:02:00.992Z,96370.28
2019-01-25T20:04:57.713Z,96379.89
2019-01-25T20:07:41.269Z,96377.42
2019-01-25T20:10:20.465Z,96384.97
2019-01-25T20:13:03.262Z,96391.51
2019-01-25T20:15:42.682Z,96382.00
2019-01-25T20:18:13.256Z,96379.06
2019-01-25T20:20:43.688Z,96390.91
2019-01-25T20:23:27.631Z,96378.08
2019-01-25T20:26:05.801Z,96382.78
2019-01-25T20:28:41.815Z,96392.73
2019-01-25T20:31:14.530Z,96394.88
2019-01-25T20:37:03.907Z,96386.27
2019-01-25T20:40:00.422Z,96379.97
2019-01-25T20:42:47.278Z,96392.95
2019-01-25T20:45:53.096Z,96391.41
2019-01-25T20:48:51.103Z,96401.53
2019-01-25T20:51:40.932Z,96402.64
2019-01-25T20:54:14.017Z,96394.27
2019-01-25T20:56:59.540Z,96394.88
2019-01-25T20:59:30.925Z,96400.13
2019-01-25T21:02:02.386Z,96409.03
2019-01-25T21:04:36.320Z,96403.34
2019-01-25T21:07:17.158Z,96411.52
2019-01-25T21:09:51.644Z,96399.53
2019-01-25T21:12:45.448Z,96415.49
2019-01-25T21:15:26.739Z,96404.16
2019-01-25T21:18:01.916Z,96426.56
2019-01-25T21:21:00.299Z,96426.22
2019-01-25T21:24:02.009Z,96425.67
2019-01-25T21:26:45.161Z,96432.13
2019-01-25T21:29:31.319Z,96433.02
2019-01-25T21:32:15.485Z,96435.45
2019-01-25T21:35:13.874Z,96436.66
2019-01-25T21:38:09.851Z,96443.30
2019-01-25T21:41:12.562Z,96455.13
2019-01-25T21:43:58.459Z,96454.41
2019-01-25T21:46:49.179Z,96455.73
2019-01-25T21:49:32.987Z,96461.37
2019-01-25T21:52:43.590Z,96452.62
2019-01-25T21:55:36.669Z,96462.69
2019-01-25T21:58:42.580Z,96459.20
2019-01-25T22:01:18.804Z,96456.59
2019-01-25T22:04:01.519Z,96458.69
2019-01-25T22:06:43.916Z,96470.65
2019-01-25T22:09:44.122Z,96467.53
2019-01-25T22:12:42.841Z,96466.03
2019-01-25T22:15:19.427Z,96455.50
2019-01-25T22:18:02.155Z,96464.06
2019-01-25T22:20:44.060Z,96467.82
2019-01-25T22:26:46.553Z,96460.36
2019-01-25T22:29:38.850Z,96463.73
2019-01-25T22:32:36.475Z,96474.70
2019-01-25T22:35:27.424Z,96474.09
2019-01-25T22:38:21.147Z,96480.66
2019-01-25T22:41:08.945Z,96477.90
2019-01-25T22:44:00.863Z,96483.62
2019-01-25T22:47:20.086Z,96467.41
2019-01-25T22:50:05.656Z,96478.44
2019-01-25T22:52:51.943Z,96489.89
2019-01-25T22:55:59.881Z,96490.11
2019-01-25T22:59:08.563Z,96502.34
2019-01-25T23:05:31.650Z,96507.91
2019-01-25T23:08:28.497Z,96508.64
2019-01-25T23:11:05.827Z,96501.52
2019-01-25T23:13:57.427Z,96508.91
2019-01-25T23:16:59.328Z,96502.00
2019-01-25T23:19:38.936Z,96505.03
2019-01-25T23:22:27.013Z,96514.09
2019-01-25T23:25:10.018Z,96514.67
2019-01-25T23:28:00.692Z,96510.83
2019-01-25T23:30:53.110Z,96520.72
2019-01-25T23:33:57.929Z,96508.79
2019-01-25T23:36:51.538Z,96511.34
2019-01-25T23:39:36.272Z,96508.19
2019-01-25T23:42:17.961Z,96509.16
2019-01-25T23:45:05.960Z,96509.16
2019-01-25T23:47:55.063Z,96512.79
2019-01-25T23:50:39.744Z,96515.55
2019-01-25T23:53:35.302Z,96506.77
2019-01-25T23:56:15.448Z,96521.64
2019-01-25T23:59:06.350Z,96508.38
